Time;durP1;ratioP1;P1;durP2;ratioP2;P2;SDS_P1;SDS_P2;PMS_P1;PMS_P2;Temp;Humidity;BMP_temperature;BMP_pressure;BME280_temperature;BME280_humidity;BME280_pressure;Samples;Min_cycle;Max_cycle;Signal;HPM_P1;HPM_P2
2023/06/09 00:00:11;;;;;;;;;;;24.50;42.10;;;;;;1530229;76;791;-66
2023/06/09 00:02:11;;;;;;;;;;;24.40;42.10;;;;;;1535368;76;1661;-59
2023/06/09 00:04:13;;;;;;;;;;;24.40;42.00;;;;;;1532147;76;745;-61
2023/06/09 00:06:16;;;;;;;;;;;24.50;42.10;;;;;;1544719;76;808;-61
2023/06/09 00:08:18;;;;;;;;;;;24.50;42.10;;;;;;1531319;76;1508;-64
2023/06/09 00:10:20;;;;;;;;;;;24.50;42.00;;;;;;1535227;76;1967;-66
2023/06/09 00:12:22;;;;;;;;;;;24.00;41.60;;;;;;1544750;76;1105;-62
2023/06/09 00:14:24;;;;;;;;;;;24.50;42.00;;;;;;1550382;76;774;-61
2023/06/09 00:16:26;;;;;;;;;;;24.60;41.90;;;;;;1541129;76;849;-67
2023/06/09 00:18:28;;;;;;;;;;;24.60;41.90;;;;;;1542007;76;1182;-60
2023/06/09 00:20:34;;;;;;;;;;;24.60;41.80;;;;;;1540956;76;731;-60
2023/06/09 00:22:42;;;;;;;;;;;24.60;41.80;;;;;;1537293;76;1714;-65
2023/06/09 00:24:40;;;;;;;;;;;24.60;41.80;;;;;;1538912;76;1557;-61
2023/06/09 00:26:42;;;;;;;;;;;24.60;41.70;;;;;;1548278;76;795;-62
2023/06/09 00:28:44;;;;;;;;;;;24.60;41.80;;;;;;1552566;76;1134;-62
2023/06/09 00:30:45;;;;;;;;;;;24.60;41.70;;;;;;1547097;76;1924;-65
2023/06/09 00:32:47;;;;;;;;;;;24.60;41.70;;;;;;1539010;76;733;-60
2023/06/09 00:34:49;;;;;;;;;;;24.60;41.80;;;;;;1545319;76;783;-66
2023/06/09 00:36:51;;;;;;;;;;;24.60;41.80;;;;;;1542226;76;1253;-60
2023/06/09 00:38:53;;;;;;;;;;;24.60;41.80;;;;;;1546305;76;1220;-60
2023/06/09 00:40:55;;;;;;;;;;;24.60;41.80;;;;;;1545249;76;720;-61
2023/06/09 00:42:57;;;;;;;;;;;24.60;41.80;;;;;;1534729;76;802;-62
2023/06/09 00:44:59;;;;;;;;;;;24.60;41.80;;;;;;1549243;76;737;-64
2023/06/09 00:47:01;;;;;;;;;;;24.60;41.70;;;;;;1548452;76;719;-65
2023/06/09 00:49:03;;;;;;;;;;;24.60;41.70;;;;;;1542724;76;1503;-62
2023/06/09 00:51:04;;;;;;;;;;;24.70;41.80;;;;;;1536392;76;1959;-60
2023/06/09 00:53:07;;;;;;;;;;;24.60;41.80;;;;;;1541853;76;788;-66
2023/06/09 00:55:09;;;;;;;;;;;24.70;41.90;;;;;;1552100;76;720;-59
2023/06/09 00:57:12;;;;;;;;;;;24.60;41.80;;;;;;1534562;76;1102;-60
2023/06/09 00:59:14;;;;;;;;;;;24.70;42.00;;;;;;1543547;76;711;-63
2023/06/09 01:01:16;;;;;;;;;;;24.60;41.90;;;;;;1545760;76;808;-62
2023/06/09 01:03:18;;;;;;;;;;;24.60;41.90;;;;;;1552156;76;1577;-64
2023/06/09 01:05:20;;;;;;;;;;;24.70;41.90;;;;;;1550094;76;729;-67
2023/06/09 01:07:24;;;;;;;;;;;24.70;42.00;;;;;;1545241;76;1154;-67
2023/06/09 01:09:27;;;;;;;;;;;24.60;41.90;;;;;;1546427;76;1318;-60
2023/06/09 01:11:34;;;;;;;;;;;24.60;41.90;;;;;;1538006;75;1932;-61
2023/06/09 01:13:37;;;;;;;;;;;24.70;42.10;;;;;;1529262;76;742;-60
2023/06/09 01:15:40;;;;;;;;;;;24.60;42.00;;;;;;1532873;76;1766;-65
2023/06/09 01:17:42;;;;;;;;;;;24.60;42.00;;;;;;1525362;76;1538;-63
2023/06/09 01:19:46;;;;;;;;;;;24.60;42.00;;;;;;1547137;76;695;-60
2023/06/09 01:21:48;;;;;;;;;;;24.60;42.00;;;;;;1532910;76;670;-64
2023/06/09 01:24:09;;;;;;;;;;;24.60;42.00;;;;;;1544285;76;716;-65
2023/06/09 01:26:12;;;;;;;;;;;24.70;42.20;;;;;;1517456;76;758;-60
2023/06/09 01:28:20;;;;;;;;;;;24.50;42.10;;;;;;1512917;76;1123;-61
2023/06/09 01:30:21;;;;;;;;;;;24.50;42.10;;;;;;1530262;76;1664;-61
2023/06/09 01:32:23;;;;;;;;;;;24.50;42.20;;;;;;1533018;76;1947;-63
2023/06/09 01:34:25;;;;;;;;;;;24.50;42.10;;;;;;1516432;76;864;-61
2023/06/09 01:36:27;;;;;;;;;;;24.60;42.10;;;;;;1535424;76;781;-62
2023/06/09 01:38:29;;;;;;;;;;;24.50;42.10;;;;;;1528598;76;1174;-61
2023/06/09 01:40:31;;;;;;;;;;;24.50;42.10;;;;;;1523478;76;659;-66
2023/06/09 01:42:33;;;;;;;;;;;24.60;42.00;;;;;;1533922;76;694;-63
2023/06/09 01:44:35;;;;;;;;;;;24.60;42.00;;;;;;1526370;76;749;-61
2023/06/09 01:46:37;;;;;;;;;;;24.70;42.10;;;;;;1536479;76;1520;-62
2023/06/09 01:48:57;;;;;;;;;;;24.60;42.00;;;;;;1545810;76;1126;-61
2023/06/09 01:51:06;;;;;;;;;;;24.70;42.20;;;;;;1541442;76;1924;-60
2023/06/09 01:53:10;;;;;;;;;;;24.60;42.10;;;;;;1525625;76;730;-62
2023/06/09 01:55:14;;;;;;;;;;;24.50;42.40;;;;;;1536597;76;748;-60
2023/06/09 01:57:17;;;;;;;;;;;24.50;42.40;;;;;;1528745;76;1819;-62
2023/06/09 01:59:21;;;;;;;;;;;24.50;42.30;;;;;;1526998;76;1116;-61
2023/06/09 02:01:23;;;;;;;;;;;24.50;42.60;;;;;;1519056;76;712;-64
2023/06/09 02:03:25;;;;;;;;;;;24.50;42.50;;;;;;1535043;76;732;-59
2023/06/09 02:05:27;;;;;;;;;;;24.60;42.60;;;;;;1528147;76;691;-59
2023/06/09 02:07:30;;;;;;;;;;;24.50;42.60;;;;;;1529046;76;1129;-62
2023/06/09 02:09:32;;;;;;;;;;;24.50;42.60;;;;;;1522975;76;734;-62
2023/06/09 02:11:34;;;;;;;;;;;24.50;42.60;;;;;;1533128;76;1953;-60
2023/06/09 02:13:36;;;;;;;;;;;24.50;42.50;;;;;;1542540;76;1532;-62
2023/06/09 02:15:38;;;;;;;;;;;24.50;42.60;;;;;;1558188;75;711;-62
2023/06/09 02:17:40;;;;;;;;;;;24.50;42.60;;;;;;1552069;75;1125;-61
2023/06/09 02:19:45;;;;;;;;;;;24.50;42.60;;;;;;1551949;75;720;-64
2023/06/09 02:21:46;;;;;;;;;;;24.40;42.50;;;;;;1546508;75;1531;-60
2023/06/09 02:23:48;;;;;;;;;;;24.40;42.50;;;;;;1552333;75;799;-62
2023/06/09 02:25:49;;;;;;;;;;;24.50;42.60;;;;;;1562331;75;795;-60
2023/06/09 02:27:51;;;;;;;;;;;24.50;42.50;;;;;;1543552;75;1616;-60
2023/06/09 02:29:53;;;;;;;;;;;24.60;42.60;;;;;;1559863;75;688;-63
2023/06/09 02:31:55;;;;;;;;;;;24.50;42.50;;;;;;1548660;75;1935;-65
2023/06/09 02:33:57;;;;;;;;;;;24.50;42.50;;;;;;1547902;75;735;-63
2023/06/09 02:35:59;;;;;;;;;;;24.50;42.60;;;;;;1550035;75;730;-60
2023/06/09 02:38:02;;;;;;;;;;;24.50;42.60;;;;;;1548347;75;1141;-60
2023/06/09 02:40:06;;;;;;;;;;;24.50;42.70;;;;;;1552464;75;2094;-61
2023/06/09 02:42:08;;;;;;;;;;;24.50;42.60;;;;;;1547586;76;1558;-63
2023/06/09 02:44:10;;;;;;;;;;;24.50;42.60;;;;;;1554691;75;719;-63
2023/06/09 02:46:12;;;;;;;;;;;24.50;42.60;;;;;;1563342;76;731;-61
2023/06/09 02:48:18;;;;;;;;;;;24.40;42.50;;;;;;1543755;75;1158;-63
2023/06/09 02:50:18;;;;;;;;;;;24.50;42.60;;;;;;1561272;76;1856;-61
2023/06/09 02:52:20;;;;;;;;;;;24.50;42.60;;;;;;1550222;75;1914;-60
2023/06/09 02:54:22;;;;;;;;;;;24.50;42.60;;;;;;1565906;76;758;-60
2023/06/09 02:56:25;;;;;;;;;;;24.50;42.60;;;;;;1558158;75;1574;-66
2023/06/09 02:58:27;;;;;;;;;;;24.50;42.70;;;;;;1548098;76;1181;-61
2023/06/09 03:00:29;;;;;;;;;;;24.50;42.60;;;;;;1559223;75;762;-64
2023/06/09 03:02:32;;;;;;;;;;;24.40;42.60;;;;;;1551086;76;699;-63
2023/06/09 03:04:35;;;;;;;;;;;24.50;42.60;;;;;;1555885;75;714;-61
2023/06/09 03:06:39;;;;;;;;;;;24.40;42.80;;;;;;1555347;75;689;-60
2023/06/09 03:08:41;;;;;;;;;;;24.40;42.70;;;;;;1548072;75;1141;-61
2023/06/09 03:10:43;;;;;;;;;;;24.40;42.60;;;;;;1558253;75;1564;-60
2023/06/09 03:12:45;;;;;;;;;;;24.40;42.60;;;;;;1545013;75;1943;-60
2023/06/09 03:14:46;;;;;;;;;;;24.40;42.60;;;;;;1542483;76;694;-62
2023/06/09 03:16:48;;;;;;;;;;;24.50;42.70;;;;;;1540234;76;736;-65
2023/06/09 03:18:51;;;;;;;;;;;24.50;42.70;;;;;;1539104;76;1157;-64
2023/06/09 03:20:53;;;;;;;;;;;24.40;42.60;;;;;;1531219;76;659;-64
2023/06/09 03:22:55;;;;;;;;;;;24.50;42.60;;;;;;1545669;76;786;-63
2023/06/09 03:24:56;;;;;;;;;;;24.50;42.60;;;;;;1540797;76;1544;-62
2023/06/09 03:26:58;;;;;;;;;;;24.40;42.50;;;;;;1548576;76;709;-65
2023/06/09 03:29:00;;;;;;;;;;;24.50;42.50;;;;;;1547975;76;1099;-63
2023/06/09 03:31:02;;;;;;;;;;;24.40;42.50;;;;;;1536144;76;776;-60
2023/06/09 03:33:05;;;;;;;;;;;24.40;42.50;;;;;;1526769;76;1926;-62
2023/06/09 03:35:08;;;;;;;;;;;24.50;42.60;;;;;;1532061;76;730;-60
2023/06/09 03:37:12;;;;;;;;;;;24.40;42.40;;;;;;1537527;76;1154;-60
2023/06/09 03:39:13;;;;;;;;;;;24.40;42.40;;;;;;1535647;76;1472;-64
2023/06/09 03:41:15;;;;;;;;;;;24.40;42.40;;;;;;1533968;76;739;-61
2023/06/09 03:43:17;;;;;;;;;;;24.40;42.60;;;;;;1534138;76;815;-62
2023/06/09 03:45:18;;;;;;;;;;;24.30;42.60;;;;;;1526366;76;755;-64
2023/06/09 03:47:20;;;;;;;;;;;24.40;42.60;;;;;;1534218;76;1131;-63
2023/06/09 03:49:22;;;;;;;;;;;24.40;42.60;;;;;;1540726;76;695;-61
2023/06/09 03:51:26;;;;;;;;;;;24.40;42.60;;;;;;1543374;76;1925;-61
2023/06/09 03:53:28;;;;;;;;;;;24.40;42.80;;;;;;1535275;76;1462;-62
2023/06/09 03:55:31;;;;;;;;;;;24.30;42.70;;;;;;1546734;76;663;-64
2023/06/09 03:57:33;;;;;;;;;;;24.40;42.70;;;;;;1532459;76;1164;-60
2023/06/09 03:59:35;;;;;;;;;;;24.30;42.60;;;;;;1540476;76;782;-60
2023/06/09 04:01:40;;;;;;;;;;;24.40;42.70;;;;;;1535196;76;717;-63
2023/06/09 04:03:40;;;;;;;;;;;24.40;42.70;;;;;;1542302;76;1620;-63
2023/06/09 04:05:42;;;;;;;;;;;24.30;42.70;;;;;;1529496;76;754;-62
2023/06/09 04:07:44;;;;;;;;;;;24.40;42.60;;;;;;1535796;76;1539;-63
2023/06/09 04:09:46;;;;;;;;;;;24.40;42.60;;;;;;1526225;76;728;-61
2023/06/09 04:11:47;;;;;;;;;;;24.40;42.60;;;;;;1530608;75;1936;-60
2023/06/09 04:13:49;;;;;;;;;;;24.40;42.60;;;;;;1545598;76;1112;-60
2023/06/09 04:15:51;;;;;;;;;;;24.40;42.60;;;;;;1554162;76;728;-63
2023/06/09 04:17:53;;;;;;;;;;;24.50;42.70;;;;;;1540410;76;1199;-63
2023/06/09 04:19:55;;;;;;;;;;;24.40;42.60;;;;;;1543946;76;777;-61
2023/06/09 04:21:57;;;;;;;;;;;24.40;42.60;;;;;;1545928;76;1659;-60
2023/06/09 04:23:59;;;;;;;;;;;24.40;42.70;;;;;;1548870;76;694;-61
2023/06/09 04:26:02;;;;;;;;;;;24.40;42.80;;;;;;1542682;76;804;-63
2023/06/09 04:28:03;;;;;;;;;;;24.30;42.80;;;;;;1548264;76;1145;-61
2023/06/09 04:30:06;;;;;;;;;;;24.40;42.80;;;;;;1547480;76;955;-65
2023/06/09 04:32:09;;;;;;;;;;;24.40;42.90;;;;;;1536046;76;1928;-62
2023/06/09 04:34:12;;;;;;;;;;;24.50;42.90;;;;;;1546576;76;1448;-63
2023/06/09 04:36:17;;;;;;;;;;;24.50;42.90;;;;;;1552558;76;631;-63
2023/06/09 04:38:19;;;;;;;;;;;24.40;42.80;;;;;;1555266;76;2291;-60
2023/06/09 04:40:25;;;;;;;;;;;24.50;42.80;;;;;;1545344;76;777;-62
2023/06/09 04:42:27;;;;;;;;;;;24.50;42.80;;;;;;1544910;76;714;-64
2023/06/09 04:44:32;;;;;;;;;;;24.60;42.80;;;;;;1550217;76;722;-61
2023/06/09 04:46:38;;;;;;;;;;;24.50;42.80;;;;;;1544378;76;1669;-65
2023/06/09 04:48:41;;;;;;;;;;;24.50;42.90;;;;;;1536421;76;1548;-62
2023/06/09 04:50:44;;;;;;;;;;;24.50;43.00;;;;;;1547166;76;713;-60
2023/06/09 04:52:47;;;;;;;;;;;24.50;43.40;;;;;;1538730;76;1924;-60
2023/06/09 04:54:51;;;;;;;;;;;24.50;43.20;;;;;;1552566;76;752;-60
2023/06/09 04:56:52;;;;;;;;;;;24.50;43.40;;;;;;1550456;76;772;-60
2023/06/09 04:58:56;;;;;;;;;;;24.40;43.20;;;;;;1547452;76;1154;-61
2023/06/09 05:00:58;;;;;;;;;;;24.40;43.30;;;;;;1551615;76;668;-61
2023/06/09 05:03:07;;;;;;;;;;;24.40;43.20;;;;;;1551685;76;1410;-60
2023/06/09 05:05:07;;;;;;;;;;;24.30;43.10;;;;;;1541195;76;1102;-61
2023/06/09 05:07:09;;;;;;;;;;;24.30;43.00;;;;;;1549635;76;1147;-62
2023/06/09 05:09:11;;;;;;;;;;;24.30;42.90;;;;;;1546395;76;737;-61
2023/06/09 05:11:13;;;;;;;;;;;24.30;42.90;;;;;;1547675;75;729;-61
2023/06/09 05:13:15;;;;;;;;;;;24.30;42.80;;;;;;1542973;76;1938;-61
2023/06/09 05:15:17;;;;;;;;;;;24.40;42.80;;;;;;1535837;76;1122;-60
2023/06/09 05:17:19;;;;;;;;;;;24.40;42.70;;;;;;1545256;76;1525;-61
2023/06/09 05:19:21;;;;;;;;;;;24.40;42.60;;;;;;1547446;76;636;-61
2023/06/09 05:21:25;;;;;;;;;;;24.40;42.60;;;;;;1543715;76;716;-60
2023/06/09 05:23:27;;;;;;;;;;;24.40;42.70;;;;;;1549215;76;1384;-61
2023/06/09 05:25:28;;;;;;;;;;;24.30;42.70;;;;;;1546601;76;802;-61
2023/06/09 05:27:30;;;;;;;;;;;24.40;42.70;;;;;;1546021;76;1133;-61
2023/06/09 05:29:32;;;;;;;;;;;24.40;42.80;;;;;;1543677;76;776;-61
2023/06/09 05:31:34;;;;;;;;;;;24.50;42.80;;;;;;1548328;76;1567;-61
2023/06/09 05:33:36;;;;;;;;;;;24.50;42.80;;;;;;1552064;76;1945;-61
2023/06/09 05:35:38;;;;;;;;;;;24.50;43.00;;;;;;1546479;76;673;-60
2023/06/09 05:37:42;;;;;;;;;;;24.50;43.00;;;;;;1541545;76;1188;-61
2023/06/09 05:39:44;;;;;;;;;;;24.50;43.40;;;;;;1554021;76;1903;-61
2023/06/09 05:41:46;;;;;;;;;;;24.50;43.40;;;;;;1546566;76;702;-61
2023/06/09 05:43:48;;;;;;;;;;;24.50;43.60;;;;;;1555305;76;764;-61
2023/06/09 05:45:50;;;;;;;;;;;24.40;43.70;;;;;;1548993;74;1416;-61
2023/06/09 05:47:52;;;;;;;;;;;24.50;44.00;;;;;;1537413;76;1101;-61
2023/06/09 05:49:54;;;;;;;;;;;24.50;44.10;;;;;;1552146;76;684;-61
2023/06/09 05:51:56;;;;;;;;;;;24.50;44.10;;;;;;1543456;76;887;-61
2023/06/09 05:53:58;;;;;;;;;;;24.40;44.10;;;;;;1552483;76;1928;-60
2023/06/09 05:56:00;;;;;;;;;;;24.50;44.10;;;;;;1541864;76;754;-61
2023/06/09 05:58:02;;;;;;;;;;;24.50;44.10;;;;;;1537744;76;1165;-61
2023/06/09 06:00:09;;;;;;;;;;;24.50;44.00;;;;;;1546501;76;1720;-61
2023/06/09 06:02:08;;;;;;;;;;;24.50;44.00;;;;;;1535592;76;1540;-60
2023/06/09 06:04:10;;;;;;;;;;;24.50;44.00;;;;;;1547825;76;793;-61
2023/06/09 06:06:12;;;;;;;;;;;24.50;44.00;;;;;;1557523;76;721;-60
2023/06/09 06:08:14;;;;;;;;;;;24.60;43.90;;;;;;1551906;76;1146;-61
2023/06/09 06:10:17;;;;;;;;;;;24.50;43.90;;;;;;1549074;76;751;-61
2023/06/09 06:12:18;;;;;;;;;;;24.60;43.90;;;;;;1544486;75;1916;-61
2023/06/09 06:14:20;;;;;;;;;;;24.60;44.00;;;;;;1557436;75;1569;-61
2023/06/09 06:16:22;;;;;;;;;;;24.60;43.90;;;;;;1552494;75;699;-61
2023/06/09 06:18:24;;;;;;;;;;;24.60;43.90;;;;;;1553081;75;1190;-61
2023/06/09 06:20:26;;;;;;;;;;;24.60;43.90;;;;;;1556382;76;767;-61
2023/06/09 06:22:28;;;;;;;;;;;24.60;43.90;;;;;;1559671;75;730;-61
2023/06/09 06:24:30;;;;;;;;;;;24.60;43.80;;;;;;1560730;75;703;-61
2023/06/09 06:26:32;;;;;;;;;;;24.60;43.70;;;;;;1547986;75;1297;-61
2023/06/09 06:28:34;;;;;;;;;;;24.60;43.80;;;;;;1546805;75;1138;-62
2023/06/09 06:30:37;;;;;;;;;;;24.70;43.80;;;;;;1564206;76;742;-61
2023/06/09 06:32:39;;;;;;;;;;;24.60;43.70;;;;;;1563208;76;1933;-62
2023/06/09 06:34:41;;;;;;;;;;;24.60;43.80;;;;;;1554639;75;656;-61
2023/06/09 06:36:43;;;;;;;;;;;24.60;43.80;;;;;;1566181;75;736;-62
2023/06/09 06:38:45;;;;;;;;;;;24.60;43.60;;;;;;1551186;75;1094;-60
2023/06/09 06:40:48;;;;;;;;;;;24.60;43.50;;;;;;1565508;75;1547;-61
2023/06/09 06:42:51;;;;;;;;;;;24.70;43.40;;;;;;1555274;75;815;-61
2023/06/09 06:44:53;;;;;;;;;;;24.60;43.10;;;;;;1561216;75;744;-61
2023/06/09 06:46:55;;;;;;;;;;;24.60;43.00;;;;;;1564717;75;789;-61
2023/06/09 06:48:56;;;;;;;;;;;24.50;43.10;;;;;;1553900;75;1103;-61
2023/06/09 06:50:58;;;;;;;;;;;24.50;43.00;;;;;;1565596;75;728;-61
2023/06/09 06:53:00;;;;;;;;;;;24.50;42.90;;;;;;1558181;75;1942;-61
2023/06/09 06:55:02;;;;;;;;;;;24.50;42.90;;;;;;1551132;75;1322;-60
2023/06/09 06:57:05;;;;;;;;;;;24.50;43.00;;;;;;1545560;75;718;-62
2023/06/09 06:59:07;;;;;;;;;;;24.50;43.00;;;;;;1553084;75;720;-60
2023/06/09 07:01:09;;;;;;;;;;;24.50;43.00;;;;;;1550919;75;883;-61
2023/06/09 07:03:12;;;;;;;;;;;24.40;43.00;;;;;;1563974;75;795;-61
2023/06/09 07:05:15;;;;;;;;;;;24.40;42.90;;;;;;1561383;75;775;-62
2023/06/09 07:07:17;;;;;;;;;;;24.40;42.90;;;;;;1554013;75;1135;-63
2023/06/09 07:09:19;;;;;;;;;;;24.50;43.30;;;;;;1559151;75;1505;-62
2023/06/09 07:11:21;;;;;;;;;;;24.50;43.60;;;;;;1552331;75;728;-61
2023/06/09 07:13:23;;;;;;;;;;;24.50;44.20;;;;;;1567183;75;1908;-62
2023/06/09 07:15:25;;;;;;;;;;;24.50;44.10;;;;;;1558490;76;1161;-62
2023/06/09 07:17:27;;;;;;;;;;;24.70;44.30;;;;;;1557135;76;1159;-61
2023/06/09 07:19:29;;;;;;;;;;;24.70;44.60;;;;;;1556101;76;770;-62
2023/06/09 07:21:32;;;;;;;;;;;24.60;44.70;;;;;;1550847;76;748;-61
2023/06/09 07:23:33;;;;;;;;;;;24.60;44.70;;;;;;1558054;76;1529;-60
2023/06/09 07:25:36;;;;;;;;;;;24.50;44.60;;;;;;1550366;76;722;-62
2023/06/09 07:27:37;;;;;;;;;;;24.70;44.70;;;;;;1552043;76;1134;-61
2023/06/09 07:29:41;;;;;;;;;;;24.80;44.40;;;;;;1552788;76;782;-61
2023/06/09 07:31:43;;;;;;;;;;;24.90;44.20;;;;;;1550758;76;845;-61
2023/06/09 07:33:45;;;;;;;;;;;24.90;44.40;;;;;;1549783;76;1931;-61
2023/06/09 07:35:49;;;;;;;;;;;24.90;44.50;;;;;;1551758;76;799;-63
2023/06/09 07:37:50;;;;;;;;;;;24.80;44.40;;;;;;1543960;76;1523;-63
2023/06/09 07:39:53;;;;;;;;;;;24.80;44.60;;;;;;1548283;76;669;-61
2023/06/09 07:41:54;;;;;;;;;;;24.70;44.70;;;;;;1551311;76;764;-61
2023/06/09 07:43:57;;;;;;;;;;;24.80;45.00;;;;;;1539759;76;623;-62
2023/06/09 07:45:58;;;;;;;;;;;24.90;44.90;;;;;;1542720;76;741;-61
2023/06/09 07:48:01;;;;;;;;;;;24.90;44.90;;;;;;1540134;76;1152;-62
2023/06/09 07:50:06;;;;;;;;;;;25.00;44.60;;;;;;1542987;76;667;-61
2023/06/09 07:52:07;;;;;;;;;;;25.00;44.40;;;;;;1547508;76;1633;-62
2023/06/09 07:54:08;;;;;;;;;;;25.00;44.50;;;;;;1540738;76;1918;-61
2023/06/09 07:56:10;;;;;;;;;;;25.00;44.40;;;;;;1544851;76;768;-63
2023/06/09 07:58:12;;;;;;;;;;;25.00;44.40;;;;;;1550546;76;1150;-61
2023/06/09 08:00:15;;;;;;;;;;;25.10;44.60;;;;;;1552024;76;715;-61
2023/06/09 08:02:17;;;;;;;;;;;25.10;44.30;;;;;;1553101;76;704;-62
2023/06/09 08:04:19;;;;;;;;;;;25.10;44.30;;;;;;1549357;76;737;-61
2023/06/09 08:06:21;;;;;;;;;;;25.10;44.50;;;;;;1538396;76;1411;-61
2023/06/09 08:08:23;;;;;;;;;;;25.00;44.70;;;;;;1549988;76;1127;-61
2023/06/09 08:10:25;;;;;;;;;;;24.90;45.10;;;;;;1549303;75;722;-61
2023/06/09 08:12:27;;;;;;;;;;;24.90;45.20;;;;;;1544931;76;765;-62
2023/06/09 08:14:29;;;;;;;;;;;24.90;45.00;;;;;;1549616;76;2056;-61
2023/06/09 08:16:31;;;;;;;;;;;25.00;45.00;;;;;;1545988;76;1084;-61
2023/06/09 08:18:33;;;;;;;;;;;25.10;45.00;;;;;;1539928;76;1164;-61
2023/06/09 08:20:34;;;;;;;;;;;24.90;45.10;;;;;;1546238;76;1505;-62
2023/06/09 08:22:36;;;;;;;;;;;24.80;45.20;;;;;;1534031;76;790;-63
2023/06/09 08:24:38;;;;;;;;;;;24.80;45.10;;;;;;1546363;76;1114;-61
2023/06/09 08:26:41;;;;;;;;;;;24.80;44.80;;;;;;1532353;76;737;-61
2023/06/09 08:28:43;;;;;;;;;;;24.80;44.70;;;;;;1534684;76;1063;-62
2023/06/09 08:30:44;;;;;;;;;;;24.70;44.90;;;;;;1534418;76;687;-61
2023/06/09 08:32:46;;;;;;;;;;;24.70;44.90;;;;;;1545802;76;735;-61
2023/06/09 08:34:48;;;;;;;;;;;24.70;45.00;;;;;;1544049;76;1944;-61
2023/06/09 08:36:50;;;;;;;;;;;24.60;44.90;;;;;;1531058;76;673;-61
2023/06/09 08:38:52;;;;;;;;;;;24.60;44.90;;;;;;1547441;76;1143;-62
2023/06/09 08:40:54;;;;;;;;;;;24.60;44.90;;;;;;1537663;76;734;-63
2023/06/09 08:42:56;;;;;;;;;;;24.70;44.80;;;;;;1534594;76;766;-62
2023/06/09 08:45:03;;;;;;;;;;;24.80;44.70;;;;;;1538870;76;787;-62
2023/06/09 08:47:05;;;;;;;;;;;24.70;44.70;;;;;;1539838;76;697;-61
2023/06/09 08:49:08;;;;;;;;;;;24.70;44.70;;;;;;1538814;76;1682;-61
2023/06/09 08:51:10;;;;;;;;;;;24.60;44.70;;;;;;1547327;76;657;-62
2023/06/09 08:53:11;;;;;;;;;;;24.70;44.70;;;;;;1541966;76;1944;-63
2023/06/09 08:55:13;;;;;;;;;;;24.70;44.60;;;;;;1544558;76;746;-65
2023/06/09 08:57:15;;;;;;;;;;;24.70;44.30;;;;;;1537529;76;1172;-62
2023/06/09 08:59:17;;;;;;;;;;;24.60;43.80;;;;;;1541424;76;747;-61
2023/06/09 09:01:20;;;;;;;;;;;24.60;43.60;;;;;;1516467;77;1521;-62
2023/06/09 09:03:22;;;;;;;;;;;24.60;44.00;;;;;;1538563;76;782;-63
2023/06/09 09:05:24;;;;;;;;;;;24.60;44.00;;;;;;1545463;76;808;-62
2023/06/09 09:07:26;;;;;;;;;;;24.60;43.90;;;;;;1541443;76;1126;-61
2023/06/09 09:09:27;;;;;;;;;;;24.80;43.20;;;;;;1539318;76;746;-61
2023/06/09 09:11:29;;;;;;;;;;;24.80;43.40;;;;;;1530101;75;785;-61
2023/06/09 09:13:31;;;;;;;;;;;24.80;43.40;;;;;;1540435;76;1926;-62
2023/06/09 09:15:33;;;;;;;;;;;24.80;43.60;;;;;;1538448;76;1500;-61
2023/06/09 09:17:35;;;;;;;;;;;24.90;43.60;;;;;;1534112;76;1166;-61
2023/06/09 09:19:37;;;;;;;;;;;24.80;43.30;;;;;;1537882;77;633;-61
2023/06/09 09:21:39;;;;;;;;;;;24.80;43.10;;;;;;1532579;76;655;-62
2023/06/09 09:23:41;;;;;;;;;;;24.70;43.30;;;;;;1544501;76;801;-61
2023/06/09 09:25:43;;;;;;;;;;;24.70;43.10;;;;;;1542999;76;812;-60
2023/06/09 09:27:46;;;;;;;;;;;24.80;43.10;;;;;;1541036;76;1254;-63
2023/06/09 09:29:48;;;;;;;;;;;24.60;42.40;;;;;;1529597;76;1435;-61
2023/06/09 09:31:50;;;;;;;;;;;24.70;43.00;;;;;;1531180;76;670;-62
2023/06/09 09:33:52;;;;;;;;;;;24.60;42.50;;;;;;1545447;76;1939;-62
2023/06/09 09:35:55;;;;;;;;;;;24.60;42.20;;;;;;1533145;76;859;-62
2023/06/09 09:37:57;;;;;;;;;;;24.60;42.40;;;;;;1532544;76;1137;-61
2023/06/09 09:39:58;;;;;;;;;;;24.80;42.60;;;;;;1531938;76;784;-63
2023/06/09 09:42:07;;;;;;;;;;;24.70;42.50;;;;;;1536434;76;790;-61
2023/06/09 09:44:10;;;;;;;;;;;24.80;42.60;;;;;;1531266;76;1535;-63
2023/06/09 09:46:12;;;;;;;;;;;24.80;42.50;;;;;;1542338;76;759;-60
2023/06/09 09:48:15;;;;;;;;;;;24.70;42.40;;;;;;1541232;76;1107;-61
2023/06/09 09:50:18;;;;;;;;;;;24.80;42.50;;;;;;1549589;76;768;-62
2023/06/09 09:52:24;;;;;;;;;;;24.80;42.50;;;;;;1535855;76;1106;-61
2023/06/09 09:54:28;;;;;;;;;;;24.70;42.40;;;;;;1545317;76;1939;-62
2023/06/09 09:56:30;;;;;;;;;;;24.70;42.40;;;;;;1542230;76;670;-61
2023/06/09 09:58:34;;;;;;;;;;;24.60;42.30;;;;;;1537215;76;1599;-62
2023/06/09 10:00:37;;;;;;;;;;;24.60;41.50;;;;;;1535109;76;1829;-62
2023/06/09 10:02:40;;;;;;;;;;;24.70;41.80;;;;;;1544010;76;867;-61
2023/06/09 10:04:42;;;;;;;;;;;24.70;42.20;;;;;;1539705;76;1154;-63
2023/06/09 10:06:44;;;;;;;;;;;24.70;42.10;;;;;;1515454;76;756;-64
2023/06/09 10:08:46;;;;;;;;;;;24.70;42.10;;;;;;1538808;76;1158;-61
2023/06/09 10:10:49;;;;;;;;;;;24.70;42.20;;;;;;1548292;75;729;-63
2023/06/09 10:12:51;;;;;;;;;;;24.80;41.70;;;;;;1541212;76;1538;-61
2023/06/09 10:14:53;;;;;;;;;;;24.60;41.50;;;;;;1539888;76;1936;-61
2023/06/09 10:16:55;;;;;;;;;;;24.70;41.40;;;;;;1532244;76;951;-61
2023/06/09 10:18:57;;;;;;;;;;;24.60;41.10;;;;;;1531959;76;1190;-64
2023/06/09 10:20:59;;;;;;;;;;;24.50;41.10;;;;;;1529452;76;803;-61
2023/06/09 10:23:00;;;;;;;;;;;24.50;41.80;;;;;;1535385;76;794;-61
2023/06/09 10:25:03;;;;;;;;;;;24.50;41.60;;;;;;1519095;76;672;-62
2023/06/09 10:27:06;;;;;;;;;;;24.50;41.80;;;;;;1524937;76;1481;-61
2023/06/09 10:29:12;;;;;;;;;;;24.60;41.00;;;;;;1539868;76;783;-61
2023/06/09 10:31:14;;;;;;;;;;;24.50;41.20;;;;;;1535418;76;781;-61
2023/06/09 10:33:20;;;;;;;;;;;24.60;41.10;;;;;;1522483;76;716;-61
2023/06/09 10:35:23;;;;;;;;;;;24.60;41.40;;;;;;1530553;76;1936;-63
2023/06/09 10:37:29;;;;;;;;;;;24.60;41.20;;;;;;1517530;76;1115;-61
2023/06/09 10:39:33;;;;;;;;;;;24.60;41.40;;;;;;1517689;76;743;-65
2023/06/09 10:41:34;;;;;;;;;;;24.60;41.00;;;;;;1527682;76;1675;-61
2023/06/09 10:43:50;;;;;;;;;;;24.70;41.30;;;;;;1522408;76;922;-61
2023/06/09 10:45:55;;;;;;;;;;;24.70;41.30;;;;;;1524394;76;742;-61
2023/06/09 10:47:57;;;;;;;;;;;24.70;40.80;;;;;;1529143;76;1248;-61
2023/06/09 10:49:59;;;;;;;;;;;24.70;40.80;;;;;;1523090;76;768;-61
2023/06/09 10:52:01;;;;;;;;;;;24.70;40.90;;;;;;1525174;76;680;-61
2023/06/09 10:54:15;;;;;;;;;;;24.70;40.80;;;;;;1536945;76;1924;-60
2023/06/09 10:56:33;;;;;;;;;;;24.80;40.80;;;;;;1543014;76;1091;-63
2023/06/09 10:58:36;;;;;;;;;;;24.80;40.90;;;;;;1531081;76;1146;-62
2023/06/09 11:00:56;;;;;;;;;;;24.90;40.80;;;;;;1517370;76;721;-61
2023/06/09 11:03:09;;;;;;;;;;;24.90;40.60;;;;;;1525942;76;772;-61
2023/06/09 11:05:11;;;;;;;;;;;24.80;40.20;;;;;;1524552;76;808;-61
2023/06/09 11:07:14;;;;;;;;;;;24.70;40.50;;;;;;1539124;76;1145;-61
2023/06/09 11:09:16;;;;;;;;;;;24.70;40.10;;;;;;1543724;76;1568;-62
2023/06/09 11:11:18;;;;;;;;;;;24.60;40.20;;;;;;1529865;76;666;-61
2023/06/09 11:13:39;;;;;;;;;;;24.60;40.20;;;;;;1530841;76;800;-61
2023/06/09 11:16:00;;;;;;;;;;;24.60;40.20;;;;;;1528763;76;1938;-61
2023/06/09 11:18:03;;;;;;;;;;;24.60;40.50;;;;;;1529858;76;1757;-62
2023/06/09 11:20:14;;;;;;;;;;;24.60;40.60;;;;;;1535516;76;1634;-61
2023/06/09 11:22:15;;;;;;;;;;;24.60;40.60;;;;;;1534457;76;1517;-61
2023/06/09 11:24:17;;;;;;;;;;;24.60;40.40;;;;;;1540449;76;733;-61
2023/06/09 11:26:21;;;;;;;;;;;24.70;40.70;;;;;;1536879;76;754;-61
2023/06/09 11:28:23;;;;;;;;;;;24.60;40.70;;;;;;1527380;76;1187;-62
2023/06/09 11:30:29;;;;;;;;;;;24.70;40.40;;;;;;1528685;76;746;-63
2023/06/09 11:32:50;;;;;;;;;;;24.60;40.60;;;;;;1528601;76;780;-62
2023/06/09 11:34:55;;;;;;;;;;;24.80;40.60;;;;;;1526329;76;1929;-61
2023/06/09 11:36:55;;;;;;;;;;;24.70;40.80;;;;;;1520631;76;1535;-62
2023/06/09 11:39:03;;;;;;;;;;;24.70;40.70;;;;;;1519692;76;1111;-61
2023/06/09 11:41:07;;;;;;;;;;;24.60;40.60;;;;;;1527480;76;650;-61
2023/06/09 11:43:09;;;;;;;;;;;24.60;40.50;;;;;;1524941;76;1656;-62
2023/06/09 11:45:11;;;;;;;;;;;24.70;40.90;;;;;;1532335;76;655;-61
2023/06/09 11:47:22;;;;;;;;;;;24.60;39.80;;;;;;1530141;76;1131;-62
2023/06/09 11:49:24;;;;;;;;;;;24.70;40.20;;;;;;1534757;76;787;-62
2023/06/09 11:51:27;;;;;;;;;;;24.60;40.10;;;;;;1531900;76;1513;-61
2023/06/09 11:53:30;;;;;;;;;;;24.60;39.90;;;;;;1536318;76;715;-61
2023/06/09 11:55:31;;;;;;;;;;;24.60;40.00;;;;;;1529089;76;1920;-61
2023/06/09 11:57:33;;;;;;;;;;;24.60;40.30;;;;;;1512321;76;1110;-61
2023/06/09 11:59:35;;;;;;;;;;;24.50;40.60;;;;;;1527885;76;770;-62
2023/06/09 12:01:39;;;;;;;;;;;24.40;40.50;;;;;;1531496;76;754;-63
2023/06/09 12:03:41;;;;;;;;;;;24.40;40.30;;;;;;1517777;76;1644;-61
2023/06/09 12:05:44;;;;;;;;;;;24.50;40.50;;;;;;1531290;76;1571;-62
2023/06/09 12:07:47;;;;;;;;;;;24.50;40.30;;;;;;1529268;76;1867;-61
2023/06/09 12:09:55;;;;;;;;;;;24.50;40.70;;;;;;1519827;76;690;-61